sensor_id;sensor_type;location;lat;lon;timestamp;P1;durP1;ratioP1;P2;durP2;ratioP2
72286;SDS011;60221;45.696;16.076;2022-11-15T00:02:28;28.87;;;11.30;;
72286;SDS011;60221;45.696;16.076;2022-11-15T00:05:12;26.65;;;10.10;;
72286;SDS011;60221;45.696;16.076;2022-11-15T00:07:57;26.52;;;10.82;;
72286;SDS011;60221;45.696;16.076;2022-11-15T00:10:42;28.37;;;9.53;;
72286;SDS011;60221;45.696;16.076;2022-11-15T00:13:27;25.00;;;9.73;;
72286;SDS011;60221;45.696;16.076;2022-11-15T00:16:12;26.42;;;10.30;;
72286;SDS011;60221;45.696;16.076;2022-11-15T00:18:57;27.65;;;11.50;;
72286;SDS011;60221;45.696;16.076;2022-11-15T00:21:42;31.23;;;11.70;;
72286;SDS011;60221;45.696;16.076;2022-11-15T00:24:26;29.50;;;12.20;;
72286;SDS011;60221;45.696;16.076;2022-11-15T00:27:11;25.15;;;9.43;;
72286;SDS011;60221;45.696;16.076;2022-11-15T00:29:55;26.15;;;9.78;;
72286;SDS011;60221;45.696;16.076;2022-11-15T00:32:40;26.75;;;9.98;;
72286;SDS011;60221;45.696;16.076;2022-11-15T00:35:24;23.77;;;8.95;;
72286;SDS011;60221;45.696;16.076;2022-11-15T00:38:09;25.27;;;9.13;;
72286;SDS011;60221;45.696;16.076;2022-11-15T00:40:54;25.62;;;8.98;;
72286;SDS011;60221;45.696;16.076;2022-11-15T00:43:38;24.32;;;8.95;;
72286;SDS011;60221;45.696;16.076;2022-11-15T00:46:23;25.77;;;10.45;;
72286;SDS011;60221;45.696;16.076;2022-11-15T00:49:09;28.70;;;11.20;;
72286;SDS011;60221;45.696;16.076;2022-11-15T00:51:54;31.47;;;11.63;;
72286;SDS011;60221;45.696;16.076;2022-11-15T00:54:38;28.65;;;11.45;;
72286;SDS011;60221;45.696;16.076;2022-11-15T00:57:23;24.10;;;10.28;;
72286;SDS011;60221;45.696;16.076;2022-11-15T01:00:08;24.75;;;9.70;;
72286;SDS011;60221;45.696;16.076;2022-11-15T01:02:54;26.37;;;10.60;;
72286;SDS011;60221;45.696;16.076;2022-11-15T01:05:40;28.50;;;11.60;;
72286;SDS011;60221;45.696;16.076;2022-11-15T01:08:25;24.05;;;9.95;;
72286;SDS011;60221;45.696;16.076;2022-11-15T01:11:11;24.37;;;11.00;;
72286;SDS011;60221;45.696;16.076;2022-11-15T01:13:56;28.12;;;10.13;;
72286;SDS011;60221;45.696;16.076;2022-11-15T01:16:41;28.57;;;11.90;;
72286;SDS011;60221;45.696;16.076;2022-11-15T01:19:25;34.50;;;13.80;;
72286;SDS011;60221;45.696;16.076;2022-11-15T01:22:10;28.57;;;11.33;;
72286;SDS011;60221;45.696;16.076;2022-11-15T01:24:55;33.30;;;13.68;;
72286;SDS011;60221;45.696;16.076;2022-11-15T01:27:40;35.20;;;14.25;;
72286;SDS011;60221;45.696;16.076;2022-11-15T01:30:24;35.55;;;13.70;;
72286;SDS011;60221;45.696;16.076;2022-11-15T01:33:09;33.97;;;12.77;;
72286;SDS011;60221;45.696;16.076;2022-11-15T01:35:53;34.58;;;14.30;;
72286;SDS011;60221;45.696;16.076;2022-11-15T01:38:39;38.70;;;14.60;;
72286;SDS011;60221;45.696;16.076;2022-11-15T01:41:29;27.32;;;11.40;;
72286;SDS011;60221;45.696;16.076;2022-11-15T01:47:36;28.23;;;11.60;;
72286;SDS011;60221;45.696;16.076;2022-11-15T01:50:29;27.98;;;11.25;;
72286;SDS011;60221;45.696;16.076;2022-11-15T01:53:17;23.87;;;9.93;;
72286;SDS011;60221;45.696;16.076;2022-11-15T01:56:06;25.27;;;9.08;;
72286;SDS011;60221;45.696;16.076;2022-11-15T01:58:56;26.35;;;10.43;;
72286;SDS011;60221;45.696;16.076;2022-11-15T02:01:43;26.00;;;10.97;;
72286;SDS011;60221;45.696;16.076;2022-11-15T02:04:29;31.45;;;12.55;;
72286;SDS011;60221;45.696;16.076;2022-11-15T02:07:24;30.75;;;12.45;;
72286;SDS011;60221;45.696;16.076;2022-11-15T02:10:12;35.23;;;14.53;;
72286;SDS011;60221;45.696;16.076;2022-11-15T02:13:00;33.55;;;13.30;;
72286;SDS011;60221;45.696;16.076;2022-11-15T02:15:52;29.67;;;12.23;;
72286;SDS011;60221;45.696;16.076;2022-11-15T02:29:01;30.02;;;12.25;;
72286;SDS011;60221;45.696;16.076;2022-11-15T02:32:05;28.70;;;12.67;;
72286;SDS011;60221;45.696;16.076;2022-11-15T02:38:14;29.92;;;12.18;;
72286;SDS011;60221;45.696;16.076;2022-11-15T02:41:02;25.43;;;11.40;;
72286;SDS011;60221;45.696;16.076;2022-11-15T02:43:57;28.42;;;11.25;;
72286;SDS011;60221;45.696;16.076;2022-11-15T02:46:53;28.33;;;10.60;;
72286;SDS011;60221;45.696;16.076;2022-11-15T02:49:58;32.55;;;11.95;;
72286;SDS011;60221;45.696;16.076;2022-11-15T02:52:50;26.42;;;11.12;;
72286;SDS011;60221;45.696;16.076;2022-11-15T02:55:41;29.52;;;12.35;;
72286;SDS011;60221;45.696;16.076;2022-11-15T03:11:49;28.90;;;10.58;;
72286;SDS011;60221;45.696;16.076;2022-11-15T03:14:51;30.55;;;11.88;;
72286;SDS011;60221;45.696;16.076;2022-11-15T03:17:38;25.60;;;10.50;;
72286;SDS011;60221;45.696;16.076;2022-11-15T03:20:33;29.02;;;11.85;;
72286;SDS011;60221;45.696;16.076;2022-11-15T03:23:20;30.08;;;11.95;;
72286;SDS011;60221;45.696;16.076;2022-11-15T03:26:07;28.52;;;11.45;;
72286;SDS011;60221;45.696;16.076;2022-11-15T03:29:01;29.70;;;11.95;;
72286;SDS011;60221;45.696;16.076;2022-11-15T03:31:51;28.27;;;11.53;;
72286;SDS011;60221;45.696;16.076;2022-11-15T03:35:11;28.95;;;11.73;;
72286;SDS011;60221;45.696;16.076;2022-11-15T03:41:05;31.57;;;12.10;;
72286;SDS011;60221;45.696;16.076;2022-11-15T03:44:04;32.88;;;12.65;;
72286;SDS011;60221;45.696;16.076;2022-11-15T03:50:18;30.20;;;11.60;;
72286;SDS011;60221;45.696;16.076;2022-11-15T03:53:06;30.08;;;11.15;;
72286;SDS011;60221;45.696;16.076;2022-11-15T03:55:51;25.00;;;10.68;;
72286;SDS011;60221;45.696;16.076;2022-11-15T03:58:36;31.02;;;12.78;;
72286;SDS011;60221;45.696;16.076;2022-11-15T04:01:20;29.97;;;11.30;;
72286;SDS011;60221;45.696;16.076;2022-11-15T04:04:05;28.73;;;11.55;;
72286;SDS011;60221;45.696;16.076;2022-11-15T04:06:50;32.35;;;11.93;;
72286;SDS011;60221;45.696;16.076;2022-11-15T04:09:34;28.52;;;11.43;;
72286;SDS011;60221;45.696;16.076;2022-11-15T04:12:21;29.63;;;10.60;;
72286;SDS011;60221;45.696;16.076;2022-11-15T04:15:16;29.20;;;12.00;;
72286;SDS011;60221;45.696;16.076;2022-11-15T04:18:03;32.55;;;11.05;;
72286;SDS011;60221;45.696;16.076;2022-11-15T04:20:47;32.00;;;11.83;;
72286;SDS011;60221;45.696;16.076;2022-11-15T04:23:50;30.52;;;11.40;;
72286;SDS011;60221;45.696;16.076;2022-11-15T04:26:53;33.02;;;12.10;;
72286;SDS011;60221;45.696;16.076;2022-11-15T04:29:38;33.70;;;12.33;;
72286;SDS011;60221;45.696;16.076;2022-11-15T04:32:23;32.78;;;11.25;;
72286;SDS011;60221;45.696;16.076;2022-11-15T04:35:08;30.62;;;11.08;;
72286;SDS011;60221;45.696;16.076;2022-11-15T04:37:53;28.20;;;10.35;;
72286;SDS011;60221;45.696;16.076;2022-11-15T04:40:39;30.00;;;11.08;;
72286;SDS011;60221;45.696;16.076;2022-11-15T04:43:23;30.13;;;9.70;;
72286;SDS011;60221;45.696;16.076;2022-11-15T04:46:08;29.45;;;10.75;;
72286;SDS011;60221;45.696;16.076;2022-11-15T04:48:53;29.92;;;11.53;;
72286;SDS011;60221;45.696;16.076;2022-11-15T04:51:38;30.57;;;9.58;;
72286;SDS011;60221;45.696;16.076;2022-11-15T04:54:23;31.80;;;11.22;;
72286;SDS011;60221;45.696;16.076;2022-11-15T04:57:08;30.27;;;10.20;;
72286;SDS011;60221;45.696;16.076;2022-11-15T04:59:52;30.10;;;10.53;;
72286;SDS011;60221;45.696;16.076;2022-11-15T05:02:37;31.27;;;10.60;;
72286;SDS011;60221;45.696;16.076;2022-11-15T05:05:40;30.12;;;10.88;;
72286;SDS011;60221;45.696;16.076;2022-11-15T05:08:26;29.32;;;10.60;;
72286;SDS011;60221;45.696;16.076;2022-11-15T05:11:10;29.73;;;10.87;;
72286;SDS011;60221;45.696;16.076;2022-11-15T05:13:55;35.03;;;11.78;;
72286;SDS011;60221;45.696;16.076;2022-11-15T05:16:40;28.90;;;10.35;;
72286;SDS011;60221;45.696;16.076;2022-11-15T05:19:25;30.85;;;10.60;;
72286;SDS011;60221;45.696;16.076;2022-11-15T05:22:10;31.75;;;11.53;;
72286;SDS011;60221;45.696;16.076;2022-11-15T05:24:54;27.03;;;9.33;;
72286;SDS011;60221;45.696;16.076;2022-11-15T05:27:39;30.45;;;10.78;;
72286;SDS011;60221;45.696;16.076;2022-11-15T05:30:24;32.90;;;11.40;;
72286;SDS011;60221;45.696;16.076;2022-11-15T05:33:09;33.80;;;11.65;;
72286;SDS011;60221;45.696;16.076;2022-11-15T05:36:00;38.40;;;15.45;;
72286;SDS011;60221;45.696;16.076;2022-11-15T05:38:56;33.00;;;12.20;;
72286;SDS011;60221;45.696;16.076;2022-11-15T05:41:42;31.25;;;11.60;;
72286;SDS011;60221;45.696;16.076;2022-11-15T05:44:31;29.67;;;9.48;;
72286;SDS011;60221;45.696;16.076;2022-11-15T05:47:23;28.42;;;10.48;;
72286;SDS011;60221;45.696;16.076;2022-11-15T05:50:09;25.40;;;9.90;;
72286;SDS011;60221;45.696;16.076;2022-11-15T05:52:58;30.53;;;10.67;;
72286;SDS011;60221;45.696;16.076;2022-11-15T05:55:44;30.40;;;10.55;;
72286;SDS011;60221;45.696;16.076;2022-11-15T05:58:31;31.00;;;10.72;;
72286;SDS011;60221;45.696;16.076;2022-11-15T06:01:17;26.42;;;9.88;;
72286;SDS011;60221;45.696;16.076;2022-11-15T06:04:02;28.42;;;9.78;;
72286;SDS011;60221;45.696;16.076;2022-11-15T06:06:46;25.10;;;8.67;;
72286;SDS011;60221;45.696;16.076;2022-11-15T06:09:31;23.95;;;8.60;;
72286;SDS011;60221;45.696;16.076;2022-11-15T06:12:16;23.12;;;9.05;;
72286;SDS011;60221;45.696;16.076;2022-11-15T06:15:00;23.20;;;8.85;;
72286;SDS011;60221;45.696;16.076;2022-11-15T06:17:45;26.33;;;9.93;;
72286;SDS011;60221;45.696;16.076;2022-11-15T06:20:29;25.77;;;9.23;;
72286;SDS011;60221;45.696;16.076;2022-11-15T06:23:14;25.82;;;9.18;;
72286;SDS011;60221;45.696;16.076;2022-11-15T06:25:59;27.60;;;10.23;;
72286;SDS011;60221;45.696;16.076;2022-11-15T06:28:46;26.70;;;9.73;;
72286;SDS011;60221;45.696;16.076;2022-11-15T06:31:31;24.45;;;9.58;;
72286;SDS011;60221;45.696;16.076;2022-11-15T06:34:18;24.63;;;10.00;;
72286;SDS011;60221;45.696;16.076;2022-11-15T06:37:02;29.48;;;12.73;;
72286;SDS011;60221;45.696;16.076;2022-11-15T06:39:47;32.48;;;11.15;;
72286;SDS011;60221;45.696;16.076;2022-11-15T06:42:32;27.93;;;10.70;;
72286;SDS011;60221;45.696;16.076;2022-11-15T06:45:16;36.53;;;13.22;;
72286;SDS011;60221;45.696;16.076;2022-11-15T06:48:01;32.63;;;12.80;;
72286;SDS011;60221;45.696;16.076;2022-11-15T06:50:52;40.03;;;13.83;;
72286;SDS011;60221;45.696;16.076;2022-11-15T06:53:38;36.85;;;14.53;;
72286;SDS011;60221;45.696;16.076;2022-11-15T06:56:23;34.00;;;13.32;;
72286;SDS011;60221;45.696;16.076;2022-11-15T06:59:07;35.85;;;15.03;;
72286;SDS011;60221;45.696;16.076;2022-11-15T07:01:52;31.17;;;13.33;;
72286;SDS011;60221;45.696;16.076;2022-11-15T07:04:37;25.57;;;10.08;;
72286;SDS011;60221;45.696;16.076;2022-11-15T07:07:21;21.97;;;9.08;;
72286;SDS011;60221;45.696;16.076;2022-11-15T07:10:07;19.45;;;7.92;;
72286;SDS011;60221;45.696;16.076;2022-11-15T07:12:53;19.00;;;8.43;;
72286;SDS011;60221;45.696;16.076;2022-11-15T07:15:39;17.97;;;7.93;;
72286;SDS011;60221;45.696;16.076;2022-11-15T07:18:24;17.77;;;7.58;;
72286;SDS011;60221;45.696;16.076;2022-11-15T07:21:09;20.50;;;8.38;;
72286;SDS011;60221;45.696;16.076;2022-11-15T07:23:54;21.15;;;7.90;;
72286;SDS011;60221;45.696;16.076;2022-11-15T07:26:39;22.35;;;10.90;;
72286;SDS011;60221;45.696;16.076;2022-11-15T07:29:24;21.67;;;9.30;;
72286;SDS011;60221;45.696;16.076;2022-11-15T07:32:09;21.27;;;10.00;;
72286;SDS011;60221;45.696;16.076;2022-11-15T07:34:54;36.55;;;16.55;;
72286;SDS011;60221;45.696;16.076;2022-11-15T07:37:38;41.80;;;18.20;;
72286;SDS011;60221;45.696;16.076;2022-11-15T07:40:23;27.67;;;11.00;;
72286;SDS011;60221;45.696;16.076;2022-11-15T07:43:10;19.93;;;8.73;;
72286;SDS011;60221;45.696;16.076;2022-11-15T07:45:55;53.10;;;22.67;;
72286;SDS011;60221;45.696;16.076;2022-11-15T07:48:40;23.73;;;11.15;;
72286;SDS011;60221;45.696;16.076;2022-11-15T07:51:25;32.78;;;13.58;;
72286;SDS011;60221;45.696;16.076;2022-11-15T07:54:09;31.52;;;12.98;;
72286;SDS011;60221;45.696;16.076;2022-11-15T07:56:54;24.73;;;10.37;;
72286;SDS011;60221;45.696;16.076;2022-11-15T07:59:39;24.07;;;9.65;;
72286;SDS011;60221;45.696;16.076;2022-11-15T08:02:24;24.07;;;10.53;;
72286;SDS011;60221;45.696;16.076;2022-11-15T08:05:08;33.50;;;14.47;;
72286;SDS011;60221;45.696;16.076;2022-11-15T08:07:57;25.95;;;8.88;;
72286;SDS011;60221;45.696;16.076;2022-11-15T08:10:42;20.00;;;7.93;;
72286;SDS011;60221;45.696;16.076;2022-11-15T08:13:27;22.20;;;9.98;;
72286;SDS011;60221;45.696;16.076;2022-11-15T08:16:12;30.37;;;13.10;;
72286;SDS011;60221;45.696;16.076;2022-11-15T08:18:57;24.77;;;10.38;;
72286;SDS011;60221;45.696;16.076;2022-11-15T08:21:41;21.07;;;9.08;;
72286;SDS011;60221;45.696;16.076;2022-11-15T08:24:26;20.17;;;8.33;;
72286;SDS011;60221;45.696;16.076;2022-11-15T08:27:10;20.65;;;9.13;;
72286;SDS011;60221;45.696;16.076;2022-11-15T08:30:01;24.52;;;11.95;;
72286;SDS011;60221;45.696;16.076;2022-11-15T08:32:52;22.77;;;10.03;;
72286;SDS011;60221;45.696;16.076;2022-11-15T08:35:36;20.72;;;9.68;;
72286;SDS011;60221;45.696;16.076;2022-11-15T08:38:20;16.73;;;8.83;;
72286;SDS011;60221;45.696;16.076;2022-11-15T08:41:05;19.67;;;9.00;;
72286;SDS011;60221;45.696;16.076;2022-11-15T08:43:50;19.32;;;9.58;;
72286;SDS011;60221;45.696;16.076;2022-11-15T08:46:35;19.95;;;8.95;;
72286;SDS011;60221;45.696;16.076;2022-11-15T08:49:19;17.32;;;9.28;;
72286;SDS011;60221;45.696;16.076;2022-11-15T08:52:04;20.43;;;9.37;;
72286;SDS011;60221;45.696;16.076;2022-11-15T08:54:48;19.85;;;10.05;;
72286;SDS011;60221;45.696;16.076;2022-11-15T08:57:33;18.98;;;9.08;;
72286;SDS011;60221;45.696;16.076;2022-11-15T09:00:18;21.27;;;10.98;;
72286;SDS011;60221;45.696;16.076;2022-11-15T09:03:04;18.57;;;9.85;;
72286;SDS011;60221;45.696;16.076;2022-11-15T09:05:55;17.23;;;8.70;;
72286;SDS011;60221;45.696;16.076;2022-11-15T09:08:42;19.40;;;10.08;;
72286;SDS011;60221;45.696;16.076;2022-11-15T09:11:27;42.33;;;18.55;;
72286;SDS011;60221;45.696;16.076;2022-11-15T09:14:12;34.45;;;15.15;;
72286;SDS011;60221;45.696;16.076;2022-11-15T09:16:58;19.27;;;8.95;;
72286;SDS011;60221;45.696;16.076;2022-11-15T09:19:43;18.60;;;9.30;;
72286;SDS011;60221;45.696;16.076;2022-11-15T09:22:27;46.73;;;21.73;;
72286;SDS011;60221;45.696;16.076;2022-11-15T09:25:12;25.00;;;13.10;;
72286;SDS011;60221;45.696;16.076;2022-11-15T09:27:57;20.55;;;10.10;;
72286;SDS011;60221;45.696;16.076;2022-11-15T09:30:42;20.40;;;9.78;;
72286;SDS011;60221;45.696;16.076;2022-11-15T09:33:27;18.50;;;8.73;;
72286;SDS011;60221;45.696;16.076;2022-11-15T09:36:12;18.48;;;9.48;;
72286;SDS011;60221;45.696;16.076;2022-11-15T09:38:57;17.87;;;9.28;;
72286;SDS011;60221;45.696;16.076;2022-11-15T09:47:41;15.47;;;8.43;;
72286;SDS011;60221;45.696;16.076;2022-11-15T09:50:26;18.75;;;8.58;;
72286;SDS011;60221;45.696;16.076;2022-11-15T09:52:47;17.02;;;9.13;;
72286;SDS011;60221;45.696;16.076;2022-11-15T09:55:14;17.05;;;8.28;;
72286;SDS011;60221;45.696;16.076;2022-11-15T09:57:57;17.67;;;10.40;;
72286;SDS011;60221;45.696;16.076;2022-11-15T10:00:40;14.93;;;7.83;;
72286;SDS011;60221;45.696;16.076;2022-11-15T10:03:12;15.48;;;9.38;;
72286;SDS011;60221;45.696;16.076;2022-11-15T10:05:48;15.48;;;8.05;;
72286;SDS011;60221;45.696;16.076;2022-11-15T10:11:17;16.10;;;8.65;;
72286;SDS011;60221;45.696;16.076;2022-11-15T10:13:50;13.70;;;7.33;;
72286;SDS011;60221;45.696;16.076;2022-11-15T10:30:56;12.50;;;7.12;;
72286;SDS011;60221;45.696;16.076;2022-11-15T10:41:21;13.57;;;7.80;;
72286;SDS011;60221;45.696;16.076;2022-11-15T10:44:07;15.30;;;8.03;;
72286;SDS011;60221;45.696;16.076;2022-11-15T10:46:40;11.65;;;6.03;;
72286;SDS011;60221;45.696;16.076;2022-11-15T10:49:18;13.28;;;6.45;;
72286;SDS011;60221;45.696;16.076;2022-11-15T10:51:51;11.53;;;6.50;;
72286;SDS011;60221;45.696;16.076;2022-11-15T10:54:28;12.57;;;6.83;;
72286;SDS011;60221;45.696;16.076;2022-11-15T10:57:15;14.00;;;6.72;;
72286;SDS011;60221;45.696;16.076;2022-11-15T10:59:48;12.88;;;6.25;;
72286;SDS011;60221;45.696;16.076;2022-11-15T11:02:32;11.25;;;6.10;;
72286;SDS011;60221;45.696;16.076;2022-11-15T11:05:06;13.00;;;6.10;;
72286;SDS011;60221;45.696;16.076;2022-11-15T11:08:01;13.20;;;6.63;;
72286;SDS011;60221;45.696;16.076;2022-11-15T11:10:27;12.75;;;7.40;;
72286;SDS011;60221;45.696;16.076;2022-11-15T11:12:54;12.60;;;7.80;;
72286;SDS011;60221;45.696;16.076;2022-11-15T11:15:20;13.95;;;7.90;;
72286;SDS011;60221;45.696;16.076;2022-11-15T11:25:58;16.00;;;8.73;;
72286;SDS011;60221;45.696;16.076;2022-11-15T11:37:49;13.90;;;7.00;;
72286;SDS011;60221;45.696;16.076;2022-11-15T11:48:57;15.07;;;6.73;;
72286;SDS011;60221;45.696;16.076;2022-11-15T11:51:41;13.75;;;6.50;;
72286;SDS011;60221;45.696;16.076;2022-11-15T11:54:17;14.90;;;7.05;;
72286;SDS011;60221;45.696;16.076;2022-11-15T11:57:05;15.25;;;7.47;;
72286;SDS011;60221;45.696;16.076;2022-11-15T12:02:29;14.80;;;6.83;;
72286;SDS011;60221;45.696;16.076;2022-11-15T12:05:04;16.17;;;7.92;;
72286;SDS011;60221;45.696;16.076;2022-11-15T12:07:37;13.20;;;6.35;;
72286;SDS011;60221;45.696;16.076;2022-11-15T12:12:58;14.83;;;6.95;;
72286;SDS011;60221;45.696;16.076;2022-11-15T12:15:39;14.87;;;7.13;;
72286;SDS011;60221;45.696;16.076;2022-11-15T12:18:15;14.85;;;8.33;;
72286;SDS011;60221;45.696;16.076;2022-11-15T12:20:48;22.98;;;9.23;;
72286;SDS011;60221;45.696;16.076;2022-11-15T12:23:30;15.72;;;7.10;;
72286;SDS011;60221;45.696;16.076;2022-11-15T12:26:02;14.58;;;6.90;;
72286;SDS011;60221;45.696;16.076;2022-11-15T12:28:52;13.87;;;7.00;;
72286;SDS011;60221;45.696;16.076;2022-11-15T12:31:35;14.63;;;7.95;;
72286;SDS011;60221;45.696;16.076;2022-11-15T12:36:55;14.65;;;8.30;;
72286;SDS011;60221;45.696;16.076;2022-11-15T12:39:21;13.83;;;7.17;;
72286;SDS011;60221;45.696;16.076;2022-11-15T12:44:58;14.18;;;7.58;;
72286;SDS011;60221;45.696;16.076;2022-11-15T12:47:25;15.90;;;7.17;;
72286;SDS011;60221;45.696;16.076;2022-11-15T12:49:53;14.43;;;6.78;;
72286;SDS011;60221;45.696;16.076;2022-11-15T12:52:19;12.30;;;6.42;;
72286;SDS011;60221;45.696;16.076;2022-11-15T12:54:56;14.77;;;7.70;;
72286;SDS011;60221;45.696;16.076;2022-11-15T12:57:27;13.78;;;8.35;;
72286;SDS011;60221;45.696;16.076;2022-11-15T13:02:41;13.80;;;7.05;;
72286;SDS011;60221;45.696;16.076;2022-11-15T13:13:00;14.43;;;8.30;;
72286;SDS011;60221;45.696;16.076;2022-11-15T13:15:38;13.40;;;7.45;;
72286;SDS011;60221;45.696;16.076;2022-11-15T13:21:19;15.47;;;7.57;;
72286;SDS011;60221;45.696;16.076;2022-11-15T13:24:15;11.85;;;6.65;;
72286;SDS011;60221;45.696;16.076;2022-11-15T13:26:42;14.68;;;7.85;;
72286;SDS011;60221;45.696;16.076;2022-11-15T13:29:19;12.60;;;7.10;;
72286;SDS011;60221;45.696;16.076;2022-11-15T13:31:45;11.97;;;6.45;;
72286;SDS011;60221;45.696;16.076;2022-11-15T13:34:18;11.70;;;5.73;;
72286;SDS011;60221;45.696;16.076;2022-11-15T13:36:57;13.93;;;6.60;;
72286;SDS011;60221;45.696;16.076;2022-11-15T13:39:29;11.30;;;6.20;;
72286;SDS011;60221;45.696;16.076;2022-11-15T13:42:02;15.50;;;6.45;;
72286;SDS011;60221;45.696;16.076;2022-11-15T13:44:29;12.07;;;6.72;;
72286;SDS011;60221;45.696;16.076;2022-11-15T13:47:02;16.57;;;7.23;;
72286;SDS011;60221;45.696;16.076;2022-11-15T13:49:40;14.70;;;6.97;;
72286;SDS011;60221;45.696;16.076;2022-11-15T13:52:09;16.07;;;6.90;;
72286;SDS011;60221;45.696;16.076;2022-11-15T13:54:41;12.65;;;6.47;;
72286;SDS011;60221;45.696;16.076;2022-11-15T13:57:24;15.13;;;6.62;;
72286;SDS011;60221;45.696;16.076;2022-11-15T13:59:55;12.97;;;6.67;;
72286;SDS011;60221;45.696;16.076;2022-11-15T14:02:31;13.38;;;6.35;;
72286;SDS011;60221;45.696;16.076;2022-11-15T14:07:57;12.37;;;6.83;;
72286;SDS011;60221;45.696;16.076;2022-11-15T14:10:30;13.85;;;6.55;;
72286;SDS011;60221;45.696;16.076;2022-11-15T14:13:03;13.70;;;7.43;;
72286;SDS011;60221;45.696;16.076;2022-11-15T14:15:38;14.47;;;6.90;;
72286;SDS011;60221;45.696;16.076;2022-11-15T14:18:04;14.68;;;7.12;;
72286;SDS011;60221;45.696;16.076;2022-11-15T14:20:35;13.08;;;7.28;;
72286;SDS011;60221;45.696;16.076;2022-11-15T14:23:05;13.75;;;6.90;;
72286;SDS011;60221;45.696;16.076;2022-11-15T14:25:59;15.03;;;7.10;;
72286;SDS011;60221;45.696;16.076;2022-11-15T14:31:06;13.65;;;7.15;;
72286;SDS011;60221;45.696;16.076;2022-11-15T14:33:35;11.48;;;6.53;;
72286;SDS011;60221;45.696;16.076;2022-11-15T14:36:14;15.25;;;7.80;;
72286;SDS011;60221;45.696;16.076;2022-11-15T14:38:46;12.90;;;6.50;;
72286;SDS011;60221;45.696;16.076;2022-11-15T14:41:20;13.13;;;6.50;;
72286;SDS011;60221;45.696;16.076;2022-11-15T14:43:50;13.38;;;7.30;;
72286;SDS011;60221;45.696;16.076;2022-11-15T14:46:18;13.20;;;6.35;;
72286;SDS011;60221;45.696;16.076;2022-11-15T14:48:45;13.18;;;6.70;;
72286;SDS011;60221;45.696;16.076;2022-11-15T14:51:15;16.83;;;7.23;;
72286;SDS011;60221;45.696;16.076;2022-11-15T14:53:43;18.52;;;8.00;;
72286;SDS011;60221;45.696;16.076;2022-11-15T14:56:11;15.65;;;8.28;;
72286;SDS011;60221;45.696;16.076;2022-11-15T14:58:39;17.82;;;8.20;;
72286;SDS011;60221;45.696;16.076;2022-11-15T15:01:13;16.05;;;7.97;;
72286;SDS011;60221;45.696;16.076;2022-11-15T15:03:43;15.73;;;7.67;;
72286;SDS011;60221;45.696;16.076;2022-11-15T15:06:09;22.62;;;7.30;;
72286;SDS011;60221;45.696;16.076;2022-11-15T15:08:38;15.48;;;8.20;;
72286;SDS011;60221;45.696;16.076;2022-11-15T15:11:14;17.27;;;8.25;;
72286;SDS011;60221;45.696;16.076;2022-11-15T15:13:42;22.20;;;8.53;;
72286;SDS011;60221;45.696;16.076;2022-11-15T15:16:08;13.62;;;7.62;;
72286;SDS011;60221;45.696;16.076;2022-11-15T15:18:34;15.20;;;7.70;;
72286;SDS011;60221;45.696;16.076;2022-11-15T15:21:00;13.23;;;6.73;;
72286;SDS011;60221;45.696;16.076;2022-11-15T15:23:30;15.93;;;7.70;;
72286;SDS011;60221;45.696;16.076;2022-11-15T15:25:56;15.35;;;8.03;;
72286;SDS011;60221;45.696;16.076;2022-11-15T15:28:22;15.60;;;7.22;;
72286;SDS011;60221;45.696;16.076;2022-11-15T15:30:48;17.90;;;8.10;;
72286;SDS011;60221;45.696;16.076;2022-11-15T15:33:15;19.17;;;9.00;;
72286;SDS011;60221;45.696;16.076;2022-11-15T15:35:41;19.23;;;9.58;;
72286;SDS011;60221;45.696;16.076;2022-11-15T15:38:11;24.03;;;9.10;;
72286;SDS011;60221;45.696;16.076;2022-11-15T15:40:38;21.48;;;8.55;;
72286;SDS011;60221;45.696;16.076;2022-11-15T15:43:05;18.87;;;9.40;;
72286;SDS011;60221;45.696;16.076;2022-11-15T15:45:33;22.60;;;9.23;;
72286;SDS011;60221;45.696;16.076;2022-11-15T15:47:59;21.48;;;9.85;;
72286;SDS011;60221;45.696;16.076;2022-11-15T15:50:31;17.43;;;7.53;;
72286;SDS011;60221;45.696;16.076;2022-11-15T15:53:01;17.40;;;8.43;;
72286;SDS011;60221;45.696;16.076;2022-11-15T15:55:29;16.95;;;8.95;;
72286;SDS011;60221;45.696;16.076;2022-11-15T15:57:56;18.35;;;8.80;;
72286;SDS011;60221;45.696;16.076;2022-11-15T16:00:23;19.47;;;10.07;;
72286;SDS011;60221;45.696;16.076;2022-11-15T16:02:51;19.02;;;10.45;;
72286;SDS011;60221;45.696;16.076;2022-11-15T16:05:18;21.12;;;9.75;;
72286;SDS011;60221;45.696;16.076;2022-11-15T16:07:45;19.90;;;10.93;;
72286;SDS011;60221;45.696;16.076;2022-11-15T16:10:15;21.07;;;12.60;;
72286;SDS011;60221;45.696;16.076;2022-11-15T16:12:50;22.93;;;11.97;;
72286;SDS011;60221;45.696;16.076;2022-11-15T16:15:19;23.83;;;12.30;;
72286;SDS011;60221;45.696;16.076;2022-11-15T16:17:55;26.80;;;14.35;;
72286;SDS011;60221;45.696;16.076;2022-11-15T16:23:11;23.42;;;12.75;;
72286;SDS011;60221;45.696;16.076;2022-11-15T16:25:41;21.60;;;11.80;;
72286;SDS011;60221;45.696;16.076;2022-11-15T16:28:18;22.27;;;11.45;;
72286;SDS011;60221;45.696;16.076;2022-11-15T16:30:48;20.43;;;11.73;;
72286;SDS011;60221;45.696;16.076;2022-11-15T16:33:17;24.32;;;12.55;;
72286;SDS011;60221;45.696;16.076;2022-11-15T16:35:45;24.45;;;14.13;;
72286;SDS011;60221;45.696;16.076;2022-11-15T16:38:14;30.00;;;14.43;;
72286;SDS011;60221;45.696;16.076;2022-11-15T16:40:41;23.98;;;14.75;;
72286;SDS011;60221;45.696;16.076;2022-11-15T16:43:08;25.95;;;14.83;;
72286;SDS011;60221;45.696;16.076;2022-11-15T16:45:34;27.20;;;15.15;;
72286;SDS011;60221;45.696;16.076;2022-11-15T16:48:01;25.02;;;13.88;;
72286;SDS011;60221;45.696;16.076;2022-11-15T16:50:29;57.67;;;27.90;;
72286;SDS011;60221;45.696;16.076;2022-11-15T16:52:59;145.17;;;63.85;;
72286;SDS011;60221;45.696;16.076;2022-11-15T16:55:27;55.98;;;27.10;;
72286;SDS011;60221;45.696;16.076;2022-11-15T16:57:55;31.48;;;15.50;;
72286;SDS011;60221;45.696;16.076;2022-11-15T17:00:26;22.02;;;11.93;;
72286;SDS011;60221;45.696;16.076;2022-11-15T17:02:52;22.83;;;11.33;;
72286;SDS011;60221;45.696;16.076;2022-11-15T17:05:21;23.57;;;11.60;;
72286;SDS011;60221;45.696;16.076;2022-11-15T17:07:51;22.62;;;11.35;;
72286;SDS011;60221;45.696;16.076;2022-11-15T17:10:19;24.90;;;12.40;;
72286;SDS011;60221;45.696;16.076;2022-11-15T17:12:48;21.20;;;12.40;;
72286;SDS011;60221;45.696;16.076;2022-11-15T17:15:15;27.53;;;16.03;;
72286;SDS011;60221;45.696;16.076;2022-11-15T17:17:42;40.28;;;19.65;;
72286;SDS011;60221;45.696;16.076;2022-11-15T17:20:17;48.30;;;23.10;;
72286;SDS011;60221;45.696;16.076;2022-11-15T17:22:42;43.63;;;22.13;;
72286;SDS011;60221;45.696;16.076;2022-11-15T17:25:09;40.38;;;20.48;;
72286;SDS011;60221;45.696;16.076;2022-11-15T17:27:36;29.47;;;15.40;;
72286;SDS011;60221;45.696;16.076;2022-11-15T17:30:02;27.40;;;15.45;;
72286;SDS011;60221;45.696;16.076;2022-11-15T17:32:31;28.73;;;15.25;;
72286;SDS011;60221;45.696;16.076;2022-11-15T17:35:03;38.98;;;19.90;;
72286;SDS011;60221;45.696;16.076;2022-11-15T17:37:34;39.23;;;21.27;;
72286;SDS011;60221;45.696;16.076;2022-11-15T17:40:01;36.17;;;21.77;;